sensor_id;sensor_type;location;lat;lon;timestamp;P1;durP1;ratioP1;P2;durP2;ratioP2
50695;SDS011;36665;51.786;21.594;2022-11-20T00:03:43;64.00;;;25.60;;
50695;SDS011;36665;51.786;21.594;2022-11-20T00:12:05;47.40;;;22.20;;
50695;SDS011;36665;51.786;21.594;2022-11-20T00:20:27;45.40;;;21.30;;
50695;SDS011;36665;51.786;21.594;2022-11-20T00:28:50;65.70;;;24.40;;
50695;SDS011;36665;51.786;21.594;2022-11-20T00:37:14;56.90;;;23.90;;
50695;SDS011;36665;51.786;21.594;2022-11-20T00:45:36;52.80;;;21.40;;
50695;SDS011;36665;51.786;21.594;2022-11-20T00:53:58;59.30;;;24.00;;
50695;SDS011;36665;51.786;21.594;2022-11-20T01:02:21;74.40;;;27.60;;
50695;SDS011;36665;51.786;21.594;2022-11-20T01:10:42;75.50;;;26.20;;
50695;SDS011;36665;51.786;21.594;2022-11-20T01:19:05;75.50;;;27.70;;
50695;SDS011;36665;51.786;21.594;2022-11-20T01:27:28;69.10;;;25.60;;
50695;SDS011;36665;51.786;21.594;2022-11-20T01:35:50;80.80;;;27.40;;
50695;SDS011;36665;51.786;21.594;2022-11-20T01:44:12;71.80;;;25.20;;
50695;SDS011;36665;51.786;21.594;2022-11-20T01:52:37;63.90;;;27.00;;
50695;SDS011;36665;51.786;21.594;2022-11-20T02:01:20;66.80;;;25.20;;
50695;SDS011;36665;51.786;21.594;2022-11-20T02:09:43;81.30;;;29.00;;
50695;SDS011;36665;51.786;21.594;2022-11-20T02:18:05;67.50;;;24.60;;
50695;SDS011;36665;51.786;21.594;2022-11-20T02:26:28;50.60;;;22.10;;
50695;SDS011;36665;51.786;21.594;2022-11-20T02:34:52;67.80;;;26.90;;
50695;SDS011;36665;51.786;21.594;2022-11-20T02:43:15;82.20;;;29.30;;
50695;SDS011;36665;51.786;21.594;2022-11-20T02:51:36;60.00;;;23.60;;
50695;SDS011;36665;51.786;21.594;2022-11-20T02:59:58;55.20;;;23.50;;
50695;SDS011;36665;51.786;21.594;2022-11-20T03:08:20;67.20;;;22.60;;
50695;SDS011;36665;51.786;21.594;2022-11-20T03:16:41;57.50;;;23.70;;
50695;SDS011;36665;51.786;21.594;2022-11-20T03:25:03;57.40;;;22.30;;
50695;SDS011;36665;51.786;21.594;2022-11-20T03:33:27;64.90;;;25.10;;
50695;SDS011;36665;51.786;21.594;2022-11-20T03:41:49;62.70;;;25.40;;
50695;SDS011;36665;51.786;21.594;2022-11-20T03:50:12;68.80;;;25.50;;
50695;SDS011;36665;51.786;21.594;2022-11-20T03:58:35;49.50;;;22.50;;
50695;SDS011;36665;51.786;21.594;2022-11-20T04:06:58;55.70;;;21.90;;
50695;SDS011;36665;51.786;21.594;2022-11-20T04:15:20;53.50;;;22.30;;
50695;SDS011;36665;51.786;21.594;2022-11-20T04:23:41;59.70;;;21.60;;
50695;SDS011;36665;51.786;21.594;2022-11-20T04:32:03;61.00;;;21.50;;
50695;SDS011;36665;51.786;21.594;2022-11-20T04:40:24;44.80;;;22.30;;
50695;SDS011;36665;51.786;21.594;2022-11-20T04:48:46;60.70;;;21.10;;
50695;SDS011;36665;51.786;21.594;2022-11-20T04:57:09;62.20;;;25.60;;
50695;SDS011;36665;51.786;21.594;2022-11-20T05:05:35;72.70;;;29.40;;
50695;SDS011;36665;51.786;21.594;2022-11-20T05:13:58;69.10;;;29.00;;
50695;SDS011;36665;51.786;21.594;2022-11-20T05:22:21;62.80;;;24.60;;
50695;SDS011;36665;51.786;21.594;2022-11-20T05:30:43;38.00;;;19.20;;
50695;SDS011;36665;51.786;21.594;2022-11-20T05:39:05;40.90;;;17.90;;
50695;SDS011;36665;51.786;21.594;2022-11-20T05:47:27;44.80;;;17.50;;
50695;SDS011;36665;51.786;21.594;2022-11-20T05:55:59;38.00;;;16.50;;
50695;SDS011;36665;51.786;21.594;2022-11-20T06:04:23;43.30;;;18.70;;
50695;SDS011;36665;51.786;21.594;2022-11-20T06:12:46;188.00;;;64.20;;
50695;SDS011;36665;51.786;21.594;2022-11-20T06:21:10;63.10;;;26.90;;
50695;SDS011;36665;51.786;21.594;2022-11-20T06:29:33;93.70;;;31.10;;
50695;SDS011;36665;51.786;21.594;2022-11-20T06:37:55;114.80;;;38.50;;
50695;SDS011;36665;51.786;21.594;2022-11-20T06:46:17;151.90;;;51.50;;
50695;SDS011;36665;51.786;21.594;2022-11-20T06:54:40;55.60;;;22.10;;
50695;SDS011;36665;51.786;21.594;2022-11-20T07:03:03;59.40;;;22.00;;
50695;SDS011;36665;51.786;21.594;2022-11-20T07:11:26;66.50;;;25.20;;
50695;SDS011;36665;51.786;21.594;2022-11-20T07:19:47;89.10;;;36.70;;
50695;SDS011;36665;51.786;21.594;2022-11-20T07:28:09;98.20;;;39.60;;
50695;SDS011;36665;51.786;21.594;2022-11-20T07:36:32;139.60;;;60.00;;
50695;SDS011;36665;51.786;21.594;2022-11-20T07:44:54;574.30;;;179.00;;
50695;SDS011;36665;51.786;21.594;2022-11-20T07:53:15;1665.90;;;455.60;;
50695;SDS011;36665;51.786;21.594;2022-11-20T08:01:42;1212.90;;;369.90;;
50695;SDS011;36665;51.786;21.594;2022-11-20T08:10:04;537.40;;;175.10;;
50695;SDS011;36665;51.786;21.594;2022-11-20T08:18:27;389.10;;;178.80;;
50695;SDS011;36665;51.786;21.594;2022-11-20T08:26:56;62.90;;;30.30;;
50695;SDS011;36665;51.786;21.594;2022-11-20T08:35:20;60.60;;;29.70;;
50695;SDS011;36665;51.786;21.594;2022-11-20T08:43:43;63.40;;;31.40;;
50695;SDS011;36665;51.786;21.594;2022-11-20T08:52:05;82.50;;;36.50;;
50695;SDS011;36665;51.786;21.594;2022-11-20T09:00:28;232.80;;;89.80;;
50695;SDS011;36665;51.786;21.594;2022-11-20T09:08:53;200.40;;;93.60;;
50695;SDS011;36665;51.786;21.594;2022-11-20T09:17:28;212.00;;;119.20;;
50695;SDS011;36665;51.786;21.594;2022-11-20T09:25:51;190.10;;;109.80;;
50695;SDS011;36665;51.786;21.594;2022-11-20T09:34:15;91.90;;;46.00;;
50695;SDS011;36665;51.786;21.594;2022-11-20T09:42:43;61.60;;;31.60;;
50695;SDS011;36665;51.786;21.594;2022-11-20T09:51:15;117.70;;;49.30;;
50695;SDS011;36665;51.786;21.594;2022-11-20T09:59:44;70.20;;;34.70;;
50695;SDS011;36665;51.786;21.594;2022-11-20T10:34:28;64.20;;;33.80;;
50695;SDS011;36665;51.786;21.594;2022-11-20T10:42:56;70.00;;;34.90;;
50695;SDS011;36665;51.786;21.594;2022-11-20T11:00:09;95.60;;;43.00;;
50695;SDS011;36665;51.786;21.594;2022-11-20T11:08:34;95.90;;;40.90;;
50695;SDS011;36665;51.786;21.594;2022-11-20T11:16:58;64.50;;;27.40;;
50695;SDS011;36665;51.786;21.594;2022-11-20T11:25:22;242.40;;;108.60;;
50695;SDS011;36665;51.786;21.594;2022-11-20T11:33:47;82.20;;;40.40;;
50695;SDS011;36665;51.786;21.594;2022-11-20T11:42:11;227.60;;;89.50;;
50695;SDS011;36665;51.786;21.594;2022-11-20T11:50:47;209.30;;;80.40;;
50695;SDS011;36665;51.786;21.594;2022-11-20T11:59:12;387.70;;;152.50;;
50695;SDS011;36665;51.786;21.594;2022-11-20T12:16:38;109.00;;;46.80;;
50695;SDS011;36665;51.786;21.594;2022-11-20T12:25:02;56.30;;;28.60;;
50695;SDS011;36665;51.786;21.594;2022-11-20T12:42:03;94.80;;;45.70;;
50695;SDS011;36665;51.786;21.594;2022-11-20T13:08:21;270.20;;;103.50;;
50695;SDS011;36665;51.786;21.594;2022-11-20T13:25:49;123.40;;;64.80;;
50695;SDS011;36665;51.786;21.594;2022-11-20T13:34:22;160.80;;;72.50;;
50695;SDS011;36665;51.786;21.594;2022-11-20T13:43:33;90.40;;;44.60;;
50695;SDS011;36665;51.786;21.594;2022-11-20T13:51:46;64.70;;;32.10;;
50695;SDS011;36665;51.786;21.594;2022-11-20T14:17:17;58.00;;;28.60;;
50695;SDS011;36665;51.786;21.594;2022-11-20T14:25:42;153.10;;;59.50;;
50695;SDS011;36665;51.786;21.594;2022-11-20T14:34:10;74.80;;;35.60;;
50695;SDS011;36665;51.786;21.594;2022-11-20T14:42:45;102.10;;;41.00;;
50695;SDS011;36665;51.786;21.594;2022-11-20T14:51:09;62.60;;;31.10;;
50695;SDS011;36665;51.786;21.594;2022-11-20T14:59:33;296.30;;;116.20;;
50695;SDS011;36665;51.786;21.594;2022-11-20T15:08:07;81.30;;;31.90;;
50695;SDS011;36665;51.786;21.594;2022-11-20T15:16:32;75.00;;;29.40;;
50695;SDS011;36665;51.786;21.594;2022-11-20T15:24:54;97.80;;;46.40;;
50695;SDS011;36665;51.786;21.594;2022-11-20T15:33:16;204.90;;;89.40;;
50695;SDS011;36665;51.786;21.594;2022-11-20T15:41:39;59.90;;;29.50;;
50695;SDS011;36665;51.786;21.594;2022-11-20T15:50:01;94.50;;;44.30;;
50695;SDS011;36665;51.786;21.594;2022-11-20T15:58:23;335.90;;;120.50;;
50695;SDS011;36665;51.786;21.594;2022-11-20T16:06:46;250.70;;;84.60;;
50695;SDS011;36665;51.786;21.594;2022-11-20T16:15:10;103.20;;;46.60;;
50695;SDS011;36665;51.786;21.594;2022-11-20T16:23:51;58.40;;;25.70;;
50695;SDS011;36665;51.786;21.594;2022-11-20T16:32:12;80.20;;;40.30;;
50695;SDS011;36665;51.786;21.594;2022-11-20T16:40:34;86.00;;;36.20;;
50695;SDS011;36665;51.786;21.594;2022-11-20T16:48:57;52.30;;;23.90;;
50695;SDS011;36665;51.786;21.594;2022-11-20T16:57:21;70.80;;;32.50;;
50695;SDS011;36665;51.786;21.594;2022-11-20T17:05:42;87.60;;;44.20;;
50695;SDS011;36665;51.786;21.594;2022-11-20T17:14:04;76.70;;;35.90;;
50695;SDS011;36665;51.786;21.594;2022-11-20T17:22:28;98.60;;;45.70;;
50695;SDS011;36665;51.786;21.594;2022-11-20T17:30:49;83.50;;;33.90;;
50695;SDS011;36665;51.786;21.594;2022-11-20T17:39:11;95.10;;;44.60;;
50695;SDS011;36665;51.786;21.594;2022-11-20T17:47:34;68.30;;;30.60;;
50695;SDS011;36665;51.786;21.594;2022-11-20T17:55:58;45.80;;;21.50;;
50695;SDS011;36665;51.786;21.594;2022-11-20T18:04:38;65.30;;;26.40;;
50695;SDS011;36665;51.786;21.594;2022-11-20T18:13:00;89.60;;;31.90;;
50695;SDS011;36665;51.786;21.594;2022-11-20T18:21:22;121.30;;;45.20;;
50695;SDS011;36665;51.786;21.594;2022-11-20T18:29:46;76.30;;;30.80;;
50695;SDS011;36665;51.786;21.594;2022-11-20T18:38:12;81.50;;;30.20;;
50695;SDS011;36665;51.786;21.594;2022-11-20T18:46:33;164.90;;;68.00;;
50695;SDS011;36665;51.786;21.594;2022-11-20T18:54:55;75.70;;;31.70;;
50695;SDS011;36665;51.786;21.594;2022-11-20T19:03:17;66.40;;;29.40;;
50695;SDS011;36665;51.786;21.594;2022-11-20T19:11:39;109.10;;;55.80;;
50695;SDS011;36665;51.786;21.594;2022-11-20T19:20:05;47.00;;;22.00;;
50695;SDS011;36665;51.786;21.594;2022-11-20T19:28:31;65.80;;;31.70;;
50695;SDS011;36665;51.786;21.594;2022-11-20T19:36:56;64.20;;;28.70;;
50695;SDS011;36665;51.786;21.594;2022-11-20T19:45:19;64.40;;;26.80;;
50695;SDS011;36665;51.786;21.594;2022-11-20T19:53:41;58.60;;;25.60;;
50695;SDS011;36665;51.786;21.594;2022-11-20T20:02:05;140.40;;;62.30;;
50695;SDS011;36665;51.786;21.594;2022-11-20T20:10:28;112.10;;;49.90;;
50695;SDS011;36665;51.786;21.594;2022-11-20T20:18:54;88.50;;;39.40;;
50695;SDS011;36665;51.786;21.594;2022-11-20T20:27:19;70.60;;;28.70;;
50695;SDS011;36665;51.786;21.594;2022-11-20T20:35:41;70.40;;;30.90;;
50695;SDS011;36665;51.786;21.594;2022-11-20T20:44:03;54.80;;;25.10;;
50695;SDS011;36665;51.786;21.594;2022-11-20T20:52:44;41.10;;;16.40;;
50695;SDS011;36665;51.786;21.594;2022-11-20T21:01:06;59.50;;;28.10;;
50695;SDS011;36665;51.786;21.594;2022-11-20T21:09:30;68.20;;;30.70;;
50695;SDS011;36665;51.786;21.594;2022-11-20T21:17:52;59.10;;;24.40;;
50695;SDS011;36665;51.786;21.594;2022-11-20T21:26:13;57.00;;;21.50;;
50695;SDS011;36665;51.786;21.594;2022-11-20T21:34:36;62.50;;;25.50;;
50695;SDS011;36665;51.786;21.594;2022-11-20T21:42:57;68.50;;;29.70;;
50695;SDS011;36665;51.786;21.594;2022-11-20T21:51:20;196.60;;;69.00;;
50695;SDS011;36665;51.786;21.594;2022-11-20T21:59:43;390.50;;;121.90;;
50695;SDS011;36665;51.786;21.594;2022-11-20T22:08:05;749.90;;;258.00;;
50695;SDS011;36665;51.786;21.594;2022-11-20T22:16:27;567.40;;;171.40;;
50695;SDS011;36665;51.786;21.594;2022-11-20T22:24:49;575.30;;;175.90;;
50695;SDS011;36665;51.786;21.594;2022-11-20T22:33:10;449.40;;;124.60;;
50695;SDS011;36665;51.786;21.594;2022-11-20T22:41:34;385.40;;;126.80;;
50695;SDS011;36665;51.786;21.594;2022-11-20T22:49:56;364.20;;;120.90;;
50695;SDS011;36665;51.786;21.594;2022-11-20T22:58:18;202.10;;;72.20;;
50695;SDS011;36665;51.786;21.594;2022-11-20T23:06:39;196.40;;;70.80;;
50695;SDS011;36665;51.786;21.594;2022-11-20T23:15:01;126.00;;;43.00;;
50695;SDS011;36665;51.786;21.594;2022-11-20T23:23:23;148.90;;;63.80;;
50695;SDS011;36665;51.786;21.594;2022-11-20T23:31:44;78.90;;;34.50;;
50695;SDS011;36665;51.786;21.594;2022-11-20T23:40:07;53.00;;;22.10;;
50695;SDS011;36665;51.786;21.594;2022-11-20T23:48:34;75.00;;;30.40;;
50695;SDS011;36665;51.786;21.594;2022-11-20T23:56:57;81.30;;;34.00;;
